createdAt,value
2019-05-20T00:02:24.408Z,98946.96
2019-05-20T00:07:20.412Z,98940.45
2019-05-20T00:12:24.932Z,98941.44
2019-05-20T00:17:29.469Z,98932.73
2019-05-20T00:22:33.840Z,98927.50
2019-05-20T00:27:38.183Z,98925.97
2019-05-20T00:32:42.735Z,98923.38
2019-05-20T00:37:47.084Z,98919.78
2019-05-20T00:42:51.460Z,98925.60
2019-05-20T00:47:55.810Z,98923.39
2019-05-20T00:53:00.204Z,98924.38
2019-05-20T00:58:04.526Z,98920.77
2019-05-20T01:03:08.891Z,98913.10
2019-05-20T01:08:13.236Z,98919.28
2019-05-20T01:13:17.576Z,98922.11
2019-05-20T01:18:21.931Z,98923.93
2019-05-20T01:23:26.412Z,98923.94
2019-05-20T01:28:30.853Z,98921.64
2019-05-20T01:33:36.866Z,98915.52
2019-05-20T01:38:41.221Z,98908.69
2019-05-20T01:43:45.662Z,98900.84
2019-05-20T01:48:50.040Z,98889.93
2019-05-20T01:53:54.442Z,98905.84
2019-05-20T01:58:58.826Z,98903.08
2019-05-20T02:04:04.432Z,98897.98
2019-05-20T02:09:09.487Z,98891.20
2019-05-20T02:14:15.610Z,98892.53
2019-05-20T02:19:19.959Z,98884.88
2019-05-20T02:24:24.700Z,98882.56
2019-05-20T02:29:29.094Z,98881.20
2019-05-20T02:34:33.496Z,98872.37
2019-05-20T02:39:37.856Z,98865.48
2019-05-20T02:44:42.210Z,98855.92
2019-05-20T02:49:46.636Z,98850.02
2019-05-20T02:54:51.213Z,98856.25
2019-05-20T02:59:55.547Z,98849.22
2019-05-20T03:04:59.884Z,98849.44
2019-05-20T03:10:07.743Z,98845.30
2019-05-20T03:15:12.305Z,98847.53
2019-05-20T03:20:16.750Z,98846.70
2019-05-20T03:25:21.111Z,98853.00
2019-05-20T03:30:25.467Z,98839.39
2019-05-20T03:35:29.854Z,98852.77
2019-05-20T03:40:34.220Z,98857.20
2019-05-20T03:45:38.598Z,98853.59
2019-05-20T03:50:42.948Z,98855.20
2019-05-20T03:55:47.401Z,98860.13
2019-05-20T04:00:52.087Z,98859.67
2019-05-20T04:05:57.513Z,98858.34
2019-05-20T04:11:01.865Z,98856.55
2019-05-20T04:16:06.241Z,98848.30
2019-05-20T04:21:10.611Z,98848.02
2019-05-20T04:26:14.981Z,98855.64
2019-05-20T04:31:19.318Z,98865.53
2019-05-20T04:36:23.673Z,98865.84
2019-05-20T04:41:28.131Z,98860.20
2019-05-20T04:46:32.489Z,98851.39
2019-05-20T04:51:36.991Z,98857.06
2019-05-20T04:56:41.370Z,98850.40
2019-05-20T05:01:45.867Z,98847.55
2019-05-20T05:06:50.226Z,98845.83
2019-05-20T05:11:54.606Z,98849.94
2019-05-20T05:16:59.007Z,98844.20
2019-05-20T05:22:03.444Z,98853.02
2019-05-20T05:27:07.824Z,98853.62
2019-05-20T05:32:12.142Z,98855.50
2019-05-20T05:37:16.488Z,98857.20
2019-05-20T05:42:20.893Z,98850.47
2019-05-20T05:47:26.350Z,98849.05
2019-05-20T05:52:30.696Z,98846.11
2019-05-20T05:57:35.085Z,98847.95
2019-05-20T06:02:39.458Z,98850.61
2019-05-20T06:07:44.910Z,98834.96
2019-05-20T06:12:49.262Z,98820.20
2019-05-20T06:17:53.652Z,98827.59
2019-05-20T06:22:58.298Z,98835.91
2019-05-20T06:28:02.669Z,98842.05
2019-05-20T06:33:07.053Z,98839.66
2019-05-20T06:38:16.161Z,98835.06
2019-05-20T06:43:20.537Z,98827.47
2019-05-20T06:48:24.900Z,98831.14
2019-05-20T06:53:29.243Z,98827.95
2019-05-20T06:58:33.592Z,98835.32
2019-05-20T07:03:38.021Z,98840.58
2019-05-20T07:08:42.415Z,98844.92
2019-05-20T07:13:46.787Z,98839.06
2019-05-20T07:18:51.172Z,98836.87
2019-05-20T07:23:55.537Z,98840.50
2019-05-20T07:28:59.901Z,98837.38
2019-05-20T07:34:04.473Z,98836.08
2019-05-20T07:39:08.941Z,98830.80
2019-05-20T07:44:13.297Z,98830.83
2019-05-20T07:49:18.042Z,98826.91
2019-05-20T07:54:23.445Z,98816.31
2019-05-20T07:59:28.659Z,98819.09
2019-05-20T08:04:33.204Z,98813.92
2019-05-20T08:09:45.192Z,98817.58
2019-05-20T08:14:43.751Z,98824.75
2019-05-20T08:19:48.206Z,98819.55
2019-05-20T08:24:52.537Z,98811.90
2019-05-20T08:29:56.920Z,98815.46
2019-05-20T08:35:01.304Z,98821.89
2019-05-20T08:40:06.251Z,98823.11
2019-05-20T08:45:10.852Z,98824.90
2019-05-20T08:50:16.395Z,98826.19
2019-05-20T08:55:20.974Z,98836.05
2019-05-20T09:00:25.778Z,98837.00
2019-05-20T09:05:30.478Z,98834.96
2019-05-20T09:10:39.145Z,98832.45
2019-05-20T09:15:45.340Z,98830.20
2019-05-20T09:20:47.596Z,98826.81
2019-05-20T09:25:51.941Z,98830.59
2019-05-20T09:30:56.577Z,98832.06
2019-05-20T09:36:02.839Z,98821.36
2019-05-20T09:41:07.468Z,98820.09
2019-05-20T09:46:11.941Z,98815.39
2019-05-20T09:51:16.495Z,98816.48
2019-05-20T09:56:20.944Z,98820.25
2019-05-20T10:01:25.363Z,98820.31
2019-05-20T10:06:29.780Z,98817.83
2019-05-20T10:11:34.286Z,98803.27
2019-05-20T10:16:38.787Z,98807.34
2019-05-20T10:21:43.203Z,98806.72
2019-05-20T10:26:47.573Z,98806.72
2019-05-20T10:31:51.968Z,98812.70
2019-05-20T10:36:56.330Z,98799.98
2019-05-20T10:42:00.712Z,98794.91
2019-05-20T10:47:05.087Z,98794.36
2019-05-20T10:52:09.433Z,98798.86
2019-05-20T10:57:14.179Z,98793.34
2019-05-20T11:02:18.630Z,98801.91
2019-05-20T11:07:22.966Z,98806.61
2019-05-20T11:12:27.373Z,98814.73
2019-05-20T11:17:31.895Z,98821.00
2019-05-20T11:22:36.275Z,98821.34
2019-05-20T11:27:40.618Z,98845.52
2019-05-20T11:32:45.000Z,98845.41
2019-05-20T11:37:49.354Z,98837.52
2019-05-20T11:42:53.730Z,98824.16
2019-05-20T11:47:58.159Z,98827.18
2019-05-20T11:53:02.533Z,98832.88
2019-05-20T11:58:15.684Z,98832.98
2019-05-20T12:03:12.993Z,98834.75
2019-05-20T12:08:17.362Z,98827.77
2019-05-20T12:13:21.733Z,98820.09
2019-05-20T12:18:26.078Z,98827.87
2019-05-20T12:23:30.452Z,98812.87
2019-05-20T12:28:34.835Z,98827.34
2019-05-20T12:33:40.580Z,98823.69
2019-05-20T12:38:44.967Z,98809.19
2019-05-20T12:44:09.607Z,98807.34
2019-05-20T12:48:55.546Z,98805.66
2019-05-20T12:53:59.944Z,98803.13
2019-05-20T12:59:04.306Z,98790.09
2019-05-20T13:04:08.879Z,98777.57
2019-05-20T13:09:13.367Z,98777.72
2019-05-20T13:14:17.741Z,98771.61
2019-05-20T13:19:22.096Z,98763.31
2019-05-20T13:24:26.458Z,98762.72
2019-05-20T13:29:30.835Z,98760.42
2019-05-20T13:34:35.183Z,98753.69
2019-05-20T13:39:40.520Z,98757.69
2019-05-20T13:44:44.882Z,98757.42
2019-05-20T13:49:49.294Z,98755.12
2019-05-20T13:54:53.671Z,98744.30
2019-05-20T13:59:58.041Z,98738.38
2019-05-20T14:05:02.536Z,98737.33
2019-05-20T14:10:09.369Z,98741.53
2019-05-20T14:15:14.566Z,98755.09
2019-05-20T14:20:19.273Z,98776.66
2019-05-20T14:25:23.684Z,98776.48
2019-05-20T14:30:28.186Z,98788.48
2019-05-20T14:35:33.588Z,98800.25
2019-05-20T14:40:37.918Z,98798.02
2019-05-20T14:45:43.098Z,98808.48
2019-05-20T14:50:47.450Z,98795.69
2019-05-20T14:55:51.793Z,98790.57
2019-05-20T15:00:56.159Z,98782.47
2019-05-20T15:06:00.525Z,98787.03
2019-05-20T15:11:04.838Z,98795.17
2019-05-20T15:16:09.256Z,98795.99
2019-05-20T15:21:13.670Z,98789.35
2019-05-20T15:26:18.586Z,98789.35
2019-05-20T15:31:22.943Z,98785.03
2019-05-20T15:36:28.226Z,98782.95
2019-05-20T15:41:32.597Z,98787.25
2019-05-20T15:46:36.972Z,98798.08
2019-05-20T15:51:41.356Z,98785.46
2019-05-20T15:56:45.716Z,98789.09
2019-05-20T16:01:50.174Z,98795.28
2019-05-20T16:06:54.505Z,98793.98
2019-05-20T16:11:58.857Z,98797.67
2019-05-20T16:17:03.379Z,98808.17
2019-05-20T16:22:07.844Z,98806.61
2019-05-20T16:27:12.182Z,98804.31
2019-05-20T16:32:16.545Z,98801.08
2019-05-20T16:37:20.979Z,98795.64
2019-05-20T16:42:25.445Z,98778.68
2019-05-20T16:47:29.905Z,98789.22
2019-05-20T16:52:34.213Z,98800.01
2019-05-20T16:57:39.544Z,98796.64
2019-05-20T17:02:44.023Z,98783.61
2019-05-20T17:07:48.444Z,98790.80
2019-05-20T17:12:52.867Z,98792.99
2019-05-20T17:17:57.229Z,98786.55
2019-05-20T17:23:01.601Z,98783.66
2019-05-20T17:28:07.177Z,98790.78
2019-05-20T17:33:11.747Z,98790.84
2019-05-20T17:38:16.140Z,98796.30
2019-05-20T17:43:20.535Z,98776.30
2019-05-20T17:48:26.012Z,98784.80
2019-05-20T17:53:30.741Z,98789.18
2019-05-20T17:58:41.803Z,98781.95
2019-05-20T18:03:46.491Z,98776.03
2019-05-20T18:08:52.583Z,98772.06
2019-05-20T18:13:57.019Z,98784.31
2019-05-20T18:19:01.528Z,98774.41
2019-05-20T18:24:07.024Z,98771.29
2019-05-20T18:29:11.391Z,98761.50
2019-05-20T18:34:15.771Z,98758.37
2019-05-20T18:39:21.233Z,98765.47
2019-05-20T18:44:25.715Z,98772.92
2019-05-20T18:49:30.089Z,98766.77
2019-05-20T18:54:34.450Z,98771.71
2019-05-20T18:59:41.379Z,98770.03
2019-05-20T19:04:45.766Z,98783.78
2019-05-20T19:09:51.950Z,98788.27
2019-05-20T19:14:56.439Z,98804.61
2019-05-20T19:20:00.832Z,98799.77
2019-05-20T19:25:07.051Z,98790.47
2019-05-20T19:30:12.024Z,98800.38
2019-05-20T19:35:18.203Z,98803.48
2019-05-20T19:40:22.740Z,98820.92
2019-05-20T19:50:31.329Z,98820.08
2019-05-20T19:55:35.963Z,98824.22
2019-05-20T20:00:40.340Z,98823.91
2019-05-20T20:05:45.650Z,98818.66
2019-05-20T20:10:50.109Z,98812.81
2019-05-20T20:15:54.556Z,98807.28
2019-05-20T20:20:59.003Z,98805.78
2019-05-20T20:26:03.537Z,98801.83
2019-05-20T20:31:10.972Z,98796.02
2019-05-20T20:36:14.791Z,98797.67
2019-05-20T20:41:19.226Z,98789.98
2019-05-20T20:46:23.764Z,98789.48
2019-05-20T20:51:28.139Z,98789.17
2019-05-20T20:56:34.333Z,98792.84
2019-05-20T21:01:38.794Z,98789.56
2019-05-20T21:06:43.113Z,98792.17
2019-05-20T21:11:47.548Z,98791.45
2019-05-20T21:16:51.925Z,98798.73
2019-05-20T21:21:56.268Z,98812.87
2019-05-20T21:27:00.666Z,98791.91
2019-05-20T21:32:05.072Z,98802.26
2019-05-20T21:37:09.424Z,98809.95
2019-05-20T21:42:13.922Z,98807.88
2019-05-20T21:47:18.266Z,98813.33
2019-05-20T21:52:22.647Z,98814.38
2019-05-20T21:57:27.021Z,98820.56
2019-05-20T22:02:31.374Z,98819.94
2019-05-20T22:07:35.834Z,98825.51
2019-05-20T22:12:40.336Z,98835.37
2019-05-20T22:17:44.705Z,98836.42
2019-05-20T22:23:07.163Z,98839.86
2019-05-20T22:28:12.959Z,98840.94
2019-05-20T22:33:17.424Z,98848.66
2019-05-20T22:38:21.802Z,98843.02
2019-05-20T22:43:26.140Z,98837.61
2019-05-20T22:48:30.518Z,98831.40
2019-05-20T22:53:34.884Z,98838.44
2019-05-20T22:58:39.312Z,98846.48
2019-05-20T23:03:55.551Z,98842.55
2019-05-20T23:08:49.761Z,98840.08
2019-05-20T23:13:54.102Z,98834.39
2019-05-20T23:18:58.465Z,98841.43
2019-05-20T23:24:02.830Z,98841.83
2019-05-20T23:29:07.213Z,98826.05
2019-05-20T23:34:13.280Z,98826.28
2019-05-20T23:39:20.570Z,98820.35
2019-05-20T23:44:25.256Z,98817.88
2019-05-20T23:49:30.935Z,98816.84
2019-05-20T23:54:35.343Z,98808.32
2019-05-20T23:59:39.805Z,98811.05
